Time;durP1;ratioP1;P1;durP2;ratioP2;P2;SDS_P1;SDS_P2;PMS_P1;PMS_P2;Temp;Humidity;BMP_temperature;BMP_pressure;BME280_temperature;BME280_humidity;BME280_pressure;Samples;Min_cycle;Max_cycle;Signal;HPM_P1;HPM_P2
2021/01/20 00:01:33;;;;;;;17.30;10.67;;;0.90;99.90;;;;;;5057026;28;20476;-76
2021/01/20 00:04:01;;;;;;;17.33;9.43;;;0.70;99.90;;;;;;5058211;28;20531;-77
2021/01/20 00:06:28;;;;;;;13.27;9.17;;;0.60;99.90;;;;;;5039276;28;20485;-78
2021/01/20 00:08:56;;;;;;;17.43;9.03;;;0.60;99.90;;;;;;5058025;28;20427;-77
2021/01/20 00:11:25;;;;;;;17.03;10.37;;;0.50;99.90;;;;;;5039473;28;20991;-77
2021/01/20 00:13:55;;;;;;;13.87;10.10;;;0.50;99.90;;;;;;5056170;28;20930;-76
2021/01/20 00:16:22;;;;;;;14.57;10.73;;;0.50;99.90;;;;;;5056700;28;20961;-77
2021/01/20 00:18:50;;;;;;;22.37;10.17;;;0.50;99.90;;;;;;5056002;28;20944;-77
2021/01/20 00:21:42;;;;;;;13.63;9.17;;;0.40;99.90;;;;;;5057903;28;20485;-76
2021/01/20 00:24:10;;;;;;;13.03;9.80;;;0.40;99.90;;;;;;5068300;28;20489;-77
2021/01/20 00:26:41;;;;;;;13.33;9.00;;;0.40;99.90;;;;;;5047364;28;20435;-77
2021/01/20 00:29:08;;;;;;;12.77;9.20;;;0.40;99.90;;;;;;5058294;28;20433;-79
2021/01/20 00:31:35;;;;;;;13.90;8.97;;;0.40;99.90;;;;;;5056482;28;20549;-79
2021/01/20 00:34:03;;;;;;;15.13;8.67;;;0.20;99.90;;;;;;5056285;28;20828;-77
2021/01/20 00:36:30;;;;;;;17.07;8.80;;;0.10;99.90;;;;;;5038938;28;20430;-77
2021/01/20 00:38:58;;;;;;;14.80;9.23;;;0.10;99.90;;;;;;5056951;28;20434;-77
2021/01/20 00:41:25;;;;;;;13.43;9.90;;;0.00;99.90;;;;;;5056408;28;20517;-82
2021/01/20 00:43:54;;;;;;;15.00;10.70;;;0.10;99.90;;;;;;5039375;28;20470;-77
2021/01/20 00:46:22;;;;;;;15.97;10.73;;;-0.10;99.90;;;;;;5048628;28;20481;-78
2021/01/20 00:48:50;;;;;;;12.97;10.20;;;-0.20;99.90;;;;;;5055138;28;20450;-77
2021/01/20 00:51:18;;;;;;;13.97;9.53;;;-0.20;99.90;;;;;;5038274;28;20534;-77
2021/01/20 00:53:45;;;;;;;17.07;10.17;;;-0.20;99.90;;;;;;5038547;28;20529;-77
2021/01/20 00:56:14;;;;;;;13.03;9.80;;;-0.20;99.90;;;;;;5076484;28;20461;-79
2021/01/20 00:59:08;;;;;;;15.20;8.60;;;-0.30;99.90;;;;;;5041858;28;20429;-77
2021/01/20 01:01:36;;;;;;;14.53;9.40;;;-0.30;99.90;;;;;;5057832;28;20560;-77
2021/01/20 01:04:10;;;;;;;14.80;8.90;;;-0.40;99.90;;;;;;5058638;28;20502;-79
2021/01/20 01:06:41;;;;;;;14.77;10.93;;;-0.40;99.90;;;;;;5042441;28;20465;-77
2021/01/20 01:09:09;;;;;;;17.00;9.83;;;-0.30;99.90;;;;;;5042103;28;20432;-80
2021/01/20 01:11:37;;;;;;;14.50;10.17;;;-0.40;99.90;;;;;;5058011;28;20449;-78
2021/01/20 01:14:04;;;;;;;16.63;10.43;;;-0.40;99.90;;;;;;5042182;28;20445;-77
2021/01/20 01:16:48;;;;;;;15.57;10.70;;;-0.40;99.90;;;;;;5068799;28;20469;-77
2021/01/20 01:19:31;;;;;;;14.30;9.80;;;-0.50;99.90;;;;;;5054402;28;20504;-77
2021/01/20 01:22:00;;;;;;;16.70;10.37;;;-0.60;99.90;;;;;;5067439;28;20451;-80
2021/01/20 01:24:33;;;;;;;14.20;10.90;;;-0.60;99.90;;;;;;5083674;28;20469;-81
2021/01/20 01:27:01;;;;;;;18.30;10.27;;;-0.70;99.90;;;;;;5060905;28;20578;-77
2021/01/20 01:29:29;;;;;;;17.93;10.30;;;-0.70;99.90;;;;;;5058909;28;20429;-78
2021/01/20 01:32:03;;;;;;;12.87;8.93;;;-0.60;99.90;;;;;;5057256;28;20465;-79
2021/01/20 01:34:33;;;;;;;15.23;10.40;;;-0.70;99.90;;;;;;5058385;28;20951;-82
2021/01/20 01:37:04;;;;;;;15.40;10.23;;;-0.70;99.90;;;;;;5040949;28;20444;-77
2021/01/20 01:39:52;;;;;;;15.97;9.47;;;-0.60;99.90;;;;;;5074960;28;20453;-77
2021/01/20 01:42:28;;;;;;;14.43;8.97;;;-0.50;99.90;;;;;;5057383;28;20441;-78
2021/01/20 01:44:57;;;;;;;14.80;8.90;;;-0.50;99.90;;;;;;5057612;28;20610;-79
2021/01/20 01:47:25;;;;;;;14.07;9.43;;;-0.50;99.90;;;;;;5056675;28;20469;-77
2021/01/20 01:49:58;;;;;;;13.87;9.43;;;-0.50;99.90;;;;;;5057995;28;20433;-81
2021/01/20 01:52:29;;;;;;;13.07;8.27;;;-0.30;99.90;;;;;;5041240;28;20529;-81
2021/01/20 01:55:15;;;;;;;14.93;8.83;;;-0.40;99.90;;;;;;5059914;28;20469;-78
2021/01/20 01:58:06;;;;;;;9.80;7.03;;;-0.40;99.90;;;;;;5063864;28;20452;-80
2021/01/20 02:00:41;;;;;;;14.13;7.10;;;-0.20;99.90;;;;;;5056932;28;20429;-77
2021/01/20 02:03:17;;;;;;;12.57;7.50;;;-0.20;99.90;;;;;;5055780;28;20453;-76
2021/01/20 02:05:47;;;;;;;10.10;7.20;;;-0.10;99.90;;;;;;5057199;28;20457;-76
2021/01/20 02:11:33;;;;;;;15.00;6.90;;;-0.20;99.90;;;;;;5040583;28;20460;-77
2021/01/20 02:14:08;;;;;;;10.60;7.17;;;-0.30;99.90;;;;;;5061462;28;20577;-77
2021/01/20 02:17:05;;;;;;;13.50;8.57;;;-0.40;99.90;;;;;;5072011;28;20462;-76
2021/01/20 02:20:06;;;;;;;11.83;7.17;;;-0.40;99.90;;;;;;5040624;28;20441;-76
2021/01/20 02:22:39;;;;;;;14.03;8.90;;;-0.50;99.90;;;;;;5056839;28;20433;-76
2021/01/20 02:25:53;;;;;;;10.40;7.70;;;-0.50;99.90;;;;;;5056932;28;20471;-79
2021/01/20 02:28:36;;;;;;;10.87;7.73;;;-0.60;99.90;;;;;;5053674;28;20422;-77
2021/01/20 02:31:22;;;;;;;16.10;8.03;;;-0.70;99.90;;;;;;5055617;28;20573;-77
2021/01/20 02:33:52;;;;;;;13.57;7.57;;;-0.70;99.90;;;;;;5056596;28;20437;-80
2021/01/20 02:36:32;;;;;;;11.10;7.50;;;-0.70;99.90;;;;;;5074940;28;20506;-76
2021/01/20 02:39:33;;;;;;;13.23;8.17;;;-0.60;99.90;;;;;;5045052;28;20433;-76
2021/01/20 02:42:20;;;;;;;10.77;8.07;;;-0.60;99.90;;;;;;5059505;28;20448;-76
2021/01/20 02:44:55;;;;;;;13.90;7.17;;;-0.50;99.90;;;;;;5056930;28;20465;-77
2021/01/20 02:47:38;;;;;;;9.83;6.27;;;-0.60;99.90;;;;;;5035503;28;20568;-76
2021/01/20 02:50:12;;;;;;;11.97;6.83;;;-0.60;99.90;;;;;;5056897;28;20482;-76
2021/01/20 02:52:48;;;;;;;17.23;7.93;;;-0.60;99.90;;;;;;5056603;28;20438;-77
2021/01/20 02:55:35;;;;;;;9.20;7.40;;;-0.60;99.90;;;;;;5074657;28;20568;-80
2021/01/20 02:58:30;;;;;;;12.13;6.47;;;-0.60;99.90;;;;;;5065768;28;20960;-78
2021/01/20 03:01:33;;;;;;;15.50;8.13;;;-0.60;99.90;;;;;;5028659;28;20469;-76
2021/01/20 03:04:05;;;;;;;9.13;6.47;;;-0.60;99.90;;;;;;5074062;28;20461;-77
2021/01/20 03:06:35;;;;;;;10.27;7.00;;;-0.60;99.90;;;;;;5056425;28;20434;-77
2021/01/20 03:09:03;;;;;;;12.67;6.80;;;-0.70;99.90;;;;;;5074545;28;20434;-80
2021/01/20 03:11:31;;;;;;;11.07;7.40;;;-0.70;99.90;;;;;;5074773;28;20437;-76
2021/01/20 03:13:59;;;;;;;12.93;7.57;;;-0.60;99.90;;;;;;5074210;28;20422;-75
2021/01/20 03:16:28;;;;;;;9.03;7.50;;;-0.70;99.90;;;;;;5072880;28;20593;-78
2021/01/20 03:18:57;;;;;;;9.70;6.60;;;-0.70;99.90;;;;;;5057443;28;20532;-76
2021/01/20 03:21:25;;;;;;;10.10;5.30;;;-0.70;99.90;;;;;;5056405;28;20456;-76
2021/01/20 03:23:56;;;;;;;13.87;7.67;;;-0.60;99.90;;;;;;5074124;28;20438;-76
2021/01/20 03:26:24;;;;;;;9.50;6.47;;;-0.50;99.90;;;;;;5074031;28;20789;-75
2021/01/20 03:28:51;;;;;;;6.20;4.80;;;-0.40;99.90;;;;;;5073794;28;20444;-79
2021/01/20 03:31:19;;;;;;;9.90;6.40;;;-0.30;99.90;;;;;;5072535;28;20611;-76
2021/01/20 03:33:46;;;;;;;9.00;6.80;;;-0.10;99.90;;;;;;5074113;28;20979;-76
2021/01/20 03:36:14;;;;;;;9.33;6.53;;;0.00;99.90;;;;;;5056145;28;20438;-77
2021/01/20 03:38:42;;;;;;;10.10;6.23;;;0.10;99.90;;;;;;5074602;28;20429;-76
2021/01/20 03:41:10;;;;;;;8.73;4.93;;;0.20;99.90;;;;;;5074632;28;20425;-76
2021/01/20 03:43:38;;;;;;;7.00;4.83;;;0.20;99.90;;;;;;5074916;28;20479;-79
2021/01/20 03:46:05;;;;;;;7.67;5.37;;;0.20;99.90;;;;;;5073175;28;20465;-77
2021/01/20 03:48:33;;;;;;;5.43;4.17;;;0.30;99.90;;;;;;5056484;28;20498;-76
2021/01/20 03:51:01;;;;;;;10.87;5.87;;;0.40;99.90;;;;;;5057244;28;20440;-77
2021/01/20 03:53:28;;;;;;;6.87;4.73;;;0.40;99.90;;;;;;5075985;28;20437;-80
2021/01/20 03:55:59;;;;;;;7.80;4.20;;;0.40;99.90;;;;;;5080520;28;20516;-77
2021/01/20 03:58:27;;;;;;;6.53;4.37;;;0.50;99.90;;;;;;5088910;28;20437;-76
2021/01/20 04:00:55;;;;;;;8.03;5.10;;;0.50;99.90;;;;;;5092809;28;20444;-76
2021/01/20 04:03:22;;;;;;;6.63;3.90;;;0.30;99.90;;;;;;5059314;28;20414;-76
2021/01/20 04:06:17;;;;;;;7.67;4.20;;;0.20;99.90;;;;;;5075532;28;20533;-76
2021/01/20 04:08:46;;;;;;;5.17;4.17;;;0.30;99.90;;;;;;5069122;28;20496;-79
2021/01/20 04:11:14;;;;;;;5.90;4.13;;;0.20;99.90;;;;;;5054544;28;20472;-76
2021/01/20 04:13:42;;;;;;;5.70;4.20;;;0.20;99.90;;;;;;5089020;28;20429;-77
2021/01/20 04:16:10;;;;;;;10.57;3.80;;;0.20;99.90;;;;;;5052722;28;20956;-77
2021/01/20 04:18:37;;;;;;;4.83;4.27;;;0.30;99.90;;;;;;5072560;28;20456;-81
2021/01/20 04:21:08;;;;;;;4.67;3.97;;;0.20;99.90;;;;;;5081918;28;20446;-76
2021/01/20 04:23:37;;;;;;;6.00;4.20;;;0.20;99.90;;;;;;5059232;28;20468;-80
2021/01/20 04:26:06;;;;;;;4.23;3.33;;;0.20;99.90;;;;;;5074167;28;20457;-80
2021/01/20 04:28:37;;;;;;;5.33;3.80;;;0.20;99.90;;;;;;5042886;28;20932;-76
2021/01/20 04:31:05;;;;;;;5.30;3.40;;;0.30;99.90;;;;;;5041934;28;20441;-77
2021/01/20 04:33:33;;;;;;;3.93;3.53;;;0.30;99.90;;;;;;5059248;28;20462;-76
2021/01/20 04:36:00;;;;;;;4.70;3.47;;;0.40;99.90;;;;;;5076761;28;20476;-76
2021/01/20 04:38:27;;;;;;;5.27;3.60;;;0.40;99.90;;;;;;5077308;28;20429;-78
2021/01/20 04:40:57;;;;;;;6.90;3.80;;;0.50;99.90;;;;;;5059129;28;20437;-77
2021/01/20 04:43:25;;;;;;;4.80;3.90;;;0.40;99.90;;;;;;5042482;28;20552;-76
2021/01/20 04:45:56;;;;;;;6.90;3.63;;;0.40;99.90;;;;;;5058224;28;20519;-80
2021/01/20 04:48:31;;;;;;;4.60;3.37;;;0.40;99.90;;;;;;5072994;28;20460;-75
2021/01/20 04:51:03;;;;;;;5.20;3.83;;;0.40;99.90;;;;;;5058202;28;20953;-76
2021/01/20 04:53:32;;;;;;;4.73;4.20;;;0.50;99.90;;;;;;5058994;28;20553;-76
2021/01/20 04:56:05;;;;;;;4.33;3.60;;;0.40;99.90;;;;;;5058680;28;20477;-75
2021/01/20 04:58:33;;;;;;;5.40;3.80;;;0.50;99.90;;;;;;5059050;28;20441;-78
2021/01/20 05:01:03;;;;;;;4.63;3.63;;;0.50;99.90;;;;;;5057619;28;20445;-76
2021/01/20 05:03:31;;;;;;;5.70;3.90;;;0.50;99.90;;;;;;5076487;28;20487;-76
2021/01/20 05:05:59;;;;;;;5.47;4.37;;;0.60;99.90;;;;;;5042576;28;20548;-77
2021/01/20 05:08:27;;;;;;;6.70;4.50;;;0.50;99.90;;;;;;5059324;28;20422;-80
2021/01/20 05:10:54;;;;;;;6.40;4.40;;;0.60;99.90;;;;;;5042519;28;20429;-76
2021/01/20 05:13:26;;;;;;;5.17;4.00;;;0.60;99.90;;;;;;5077820;28;20526;-79
2021/01/20 05:15:54;;;;;;;9.30;3.73;;;0.60;99.90;;;;;;5059819;28;20499;-79
2021/01/20 05:18:23;;;;;;;5.00;3.60;;;0.60;99.90;;;;;;5076243;28;20476;-77
2021/01/20 05:20:53;;;;;;;6.27;2.83;;;0.60;99.90;;;;;;5077502;28;20465;-76
2021/01/20 05:23:28;;;;;;;5.40;4.27;;;0.60;99.90;;;;;;5060625;28;20858;-76
2021/01/20 05:25:55;;;;;;;4.10;3.67;;;0.70;99.90;;;;;;5078314;28;20827;-77
2021/01/20 05:28:26;;;;;;;4.93;3.50;;;0.70;99.90;;;;;;5042963;28;20442;-76
2021/01/20 05:30:58;;;;;;;4.03;3.60;;;0.70;99.90;;;;;;5077786;28;20441;-77
2021/01/20 05:33:28;;;;;;;4.50;3.30;;;0.70;99.90;;;;;;5063406;28;20516;-76
2021/01/20 05:36:07;;;;;;;3.80;3.40;;;0.80;99.90;;;;;;5063050;28;20444;-76
2021/01/20 05:38:37;;;;;;;4.80;3.83;;;0.80;99.90;;;;;;5082286;28;20433;-76
2021/01/20 05:41:18;;;;;;;4.63;3.40;;;0.70;99.90;;;;;;5084309;28;20479;-76
2021/01/20 05:43:47;;;;;;;7.73;4.53;;;0.70;99.90;;;;;;5049670;28;20437;-78
2021/01/20 05:46:29;;;;;;;3.77;3.37;;;0.80;99.90;;;;;;5062807;28;20481;-76
2021/01/20 05:48:58;;;;;;;6.50;4.20;;;0.80;99.90;;;;;;5057980;28;20945;-76
2021/01/20 05:51:25;;;;;;;5.97;3.80;;;0.80;99.90;;;;;;5058823;28;20439;-80
2021/01/20 05:53:55;;;;;;;6.63;3.63;;;0.80;99.90;;;;;;5068315;28;20440;-76
2021/01/20 05:56:26;;;;;;;5.57;3.30;;;0.70;99.90;;;;;;5065975;28;20434;-76
2021/01/20 05:58:55;;;;;;;5.43;4.23;;;0.80;99.90;;;;;;5058110;28;20510;-76
2021/01/20 06:01:24;;;;;;;5.70;4.57;;;0.70;99.90;;;;;;5074447;28;20485;-77
2021/01/20 06:03:53;;;;;;;6.53;4.43;;;0.70;99.90;;;;;;5075950;28;20762;-77
2021/01/20 06:06:22;;;;;;;5.03;4.10;;;0.70;99.90;;;;;;5058485;28;20528;-77
2021/01/20 06:08:51;;;;;;;4.50;3.57;;;0.80;99.90;;;;;;5078170;28;20436;-81
2021/01/20 06:11:20;;;;;;;4.03;3.43;;;0.80;99.90;;;;;;5075316;28;20487;-78
2021/01/20 06:13:50;;;;;;;4.80;3.60;;;0.80;99.90;;;;;;5077864;28;20426;-80
2021/01/20 06:16:19;;;;;;;6.00;3.60;;;0.80;99.90;;;;;;5075157;28;20561;-75
2021/01/20 06:18:52;;;;;;;5.03;4.20;;;0.90;99.90;;;;;;5075304;28;20516;-76
2021/01/20 06:21:19;;;;;;;4.20;3.43;;;0.80;99.90;;;;;;5057756;28;20438;-79
2021/01/20 06:23:54;;;;;;;5.63;3.90;;;0.90;99.90;;;;;;5058416;28;20434;-77
2021/01/20 06:26:25;;;;;;;6.60;3.67;;;0.90;99.90;;;;;;5058475;28;20586;-80
2021/01/20 06:28:59;;;;;;;4.13;3.57;;;0.90;99.90;;;;;;5040595;28;20479;-75
2021/01/20 06:31:28;;;;;;;5.53;3.93;;;0.90;99.90;;;;;;5040025;28;20461;-78
2021/01/20 06:33:56;;;;;;;5.23;4.27;;;0.90;99.90;;;;;;5066643;28;20422;-76
2021/01/20 06:36:33;;;;;;;6.47;4.03;;;1.00;99.90;;;;;;5086990;28;20425;-78
2021/01/20 06:39:22;;;;;;;4.43;3.83;;;0.90;99.90;;;;;;5058545;28;20471;-78
2021/01/20 06:41:50;;;;;;;5.57;3.03;;;1.00;99.90;;;;;;5075532;28;20436;-76
2021/01/20 06:44:17;;;;;;;5.67;3.33;;;1.10;99.90;;;;;;5057298;28;20436;-79
2021/01/20 06:47:00;;;;;;;3.37;3.07;;;1.00;99.90;;;;;;5074417;28;20804;-80
2021/01/20 06:52:23;;;;;;;5.17;3.73;;;1.00;99.90;;;;;;5046744;28;20464;-75
2021/01/20 06:54:52;;;;;;;5.40;3.90;;;1.10;99.90;;;;;;5051608;28;20462;-74
2021/01/20 06:57:31;;;;;;;4.80;3.30;;;1.10;99.90;;;;;;5038028;28;20439;-75
2021/01/20 07:00:19;;;;;;;6.03;3.43;;;1.10;99.90;;;;;;4996410;28;20503;-76
2021/01/20 07:03:08;;;;;;;4.03;3.63;;;1.20;99.90;;;;;;5010709;28;20482;-76
2021/01/20 07:05:38;;;;;;;4.80;3.70;;;1.20;99.90;;;;;;4993373;28;20495;-76
2021/01/20 07:08:09;;;;;;;4.60;3.70;;;1.30;99.90;;;;;;5008390;28;20518;-76
2021/01/20 07:11:08;;;;;;;7.87;4.20;;;1.30;99.90;;;;;;4972626;28;20542;-77
2021/01/20 07:13:40;;;;;;;4.70;3.50;;;1.30;99.90;;;;;;4972697;28;20479;-76
2021/01/20 07:16:10;;;;;;;6.90;3.30;;;1.30;99.90;;;;;;5013742;28;20470;-75
2021/01/20 07:18:41;;;;;;;4.60;3.27;;;1.30;99.90;;;;;;5026688;28;21041;-75
2021/01/20 07:21:11;;;;;;;5.17;3.97;;;1.30;99.90;;;;;;5024632;28;20474;-75
2021/01/20 07:23:40;;;;;;;4.80;3.30;;;1.40;99.90;;;;;;5009011;28;20812;-76
2021/01/20 07:26:10;;;;;;;7.10;3.43;;;1.50;99.90;;;;;;5025034;28;20523;-75
2021/01/20 07:28:40;;;;;;;5.80;3.67;;;1.60;99.90;;;;;;5025832;28;20514;-74
2021/01/20 07:31:10;;;;;;;4.37;3.57;;;1.60;99.90;;;;;;5024138;28;20489;-76
2021/01/20 07:33:40;;;;;;;3.03;2.70;;;1.60;99.90;;;;;;4992178;28;20509;-75
2021/01/20 07:36:13;;;;;;;3.63;2.87;;;1.60;99.90;;;;;;5024739;28;20467;-76
2021/01/20 07:38:41;;;;;;;3.77;3.13;;;1.70;99.90;;;;;;5025045;28;20463;-76
2021/01/20 07:41:18;;;;;;;3.23;2.93;;;1.80;99.90;;;;;;5044560;28;20550;-76
2021/01/20 07:43:47;;;;;;;5.10;3.97;;;1.80;99.90;;;;;;5037360;28;20462;-76
2021/01/20 07:46:19;;;;;;;5.67;3.60;;;1.90;99.90;;;;;;5011616;28;20515;-76
2021/01/20 07:48:47;;;;;;;3.40;3.10;;;1.90;99.90;;;;;;5008820;28;20562;-76
2021/01/20 07:51:20;;;;;;;3.43;2.93;;;2.00;99.90;;;;;;5009747;28;20455;-76
2021/01/20 07:54:01;;;;;;;4.07;2.83;;;2.10;99.90;;;;;;5025752;28;20451;-75
2021/01/20 07:56:31;;;;;;;3.67;3.30;;;2.20;99.90;;;;;;5026649;28;20462;-76
2021/01/20 07:59:15;;;;;;;4.67;4.17;;;2.20;99.90;;;;;;5025610;28;20973;-76
2021/01/20 08:01:43;;;;;;;5.77;3.30;;;2.30;99.90;;;;;;4998109;28;20648;-75
2021/01/20 08:04:22;;;;;;;5.53;3.33;;;2.40;99.90;;;;;;5011459;28;20444;-75
2021/01/20 08:06:50;;;;;;;10.53;3.60;;;2.50;99.90;;;;;;4993764;28;20559;-76
2021/01/20 08:09:18;;;;;;;3.43;2.90;;;2.60;99.90;;;;;;5009426;28;20999;-76
2021/01/20 08:11:47;;;;;;;3.70;2.77;;;2.60;99.90;;;;;;5012386;28;20464;-76
2021/01/20 08:14:17;;;;;;;4.00;3.53;;;2.70;99.90;;;;;;5011387;28;20507;-76
2021/01/20 08:16:45;;;;;;;4.73;3.43;;;2.80;99.90;;;;;;5010738;28;20487;-76
2021/01/20 08:19:20;;;;;;;3.83;3.27;;;3.10;99.90;;;;;;5041335;28;20483;-75
2021/01/20 08:21:48;;;;;;;4.50;3.47;;;3.40;99.90;;;;;;5035457;28;20470;-76
2021/01/20 08:24:21;;;;;;;3.87;2.90;;;3.90;99.90;;;;;;5064409;28;20459;-76
2021/01/20 08:26:56;;;;;;;4.27;3.03;;;4.70;99.90;;;;;;5030852;28;20985;-76
2021/01/20 08:29:24;;;;;;;3.50;3.20;;;4.90;99.90;;;;;;5028467;28;20505;-75
2021/01/20 08:32:07;;;;;;;3.63;2.77;;;4.90;99.90;;;;;;5028871;28;20507;-76
2021/01/20 08:34:36;;;;;;;3.20;2.47;;;6.00;99.90;;;;;;5029499;28;20527;-76
2021/01/20 08:37:09;;;;;;;4.37;3.13;;;6.20;99.90;;;;;;5026840;28;20986;-76
2021/01/20 08:39:39;;;;;;;5.30;2.87;;;6.60;99.90;;;;;;5010292;28;21020;-77
2021/01/20 08:42:15;;;;;;;2.60;2.40;;;6.70;99.90;;;;;;5044331;28;20983;-76
2021/01/20 08:45:20;;;;;;;4.60;2.67;;;6.70;99.90;;;;;;5029418;28;20475;-77
2021/01/20 08:47:53;;;;;;;3.37;3.00;;;7.40;99.90;;;;;;5044901;28;20465;-76
2021/01/20 08:50:34;;;;;;;3.30;2.40;;;8.60;97.60;;;;;;5032345;28;20436;-76
2021/01/20 08:53:02;;;;;;;4.10;2.77;;;9.50;94.90;;;;;;5026670;28;20459;-76
2021/01/20 08:55:32;;;;;;;4.10;2.60;;;9.50;94.50;;;;;;5042077;28;20463;-76
2021/01/20 08:58:20;;;;;;;3.17;2.50;;;10.30;92.80;;;;;;5050006;28;20462;-76
2021/01/20 09:00:49;;;;;;;3.43;3.10;;;10.10;91.90;;;;;;5048457;28;20549;-75
2021/01/20 09:03:19;;;;;;;7.20;2.60;;;10.70;91.90;;;;;;5031473;28;20446;-77
2021/01/20 09:05:47;;;;;;;3.17;2.60;;;10.90;90.90;;;;;;5052980;28;20484;-78
2021/01/20 09:08:16;;;;;;;3.00;2.73;;;11.90;87.10;;;;;;5052230;28;20858;-76
2021/01/20 09:10:44;;;;;;;3.30;2.77;;;13.30;82.70;;;;;;5058443;28;20533;-76
2021/01/20 09:13:12;;;;;;;3.70;2.83;;;15.50;73.40;;;;;;5053074;28;20444;-76
2021/01/20 09:15:41;;;;;;;4.53;2.60;;;16.50;66.40;;;;;;5014899;28;20462;-76
2021/01/20 09:18:09;;;;;;;4.20;2.93;;;14.80;65.50;;;;;;5029971;28;20478;-76
2021/01/20 09:20:37;;;;;;;3.40;2.63;;;15.10;66.80;;;;;;5030702;28;20473;-77
2021/01/20 09:23:05;;;;;;;4.40;2.53;;;15.10;63.80;;;;;;5014686;28;20498;-77
2021/01/20 09:28:26;;;;;;;4.70;2.50;;;11.60;74.20;;;;;;5015277;28;20472;-76
2021/01/20 09:30:55;;;;;;;3.83;2.90;;;10.90;75.50;;;;;;5048731;28;20469;-77
2021/01/20 09:33:27;;;;;;;4.13;2.73;;;9.90;80.10;;;;;;5022990;28;20509;-76
2021/01/20 09:35:56;;;;;;;3.07;2.40;;;8.90;85.70;;;;;;5038105;28;20573;-75
2021/01/20 09:38:24;;;;;;;4.40;3.40;;;8.70;88.80;;;;;;5053984;28;20462;-76
2021/01/20 09:40:55;;;;;;;3.93;3.40;;;8.10;92.20;;;;;;5031763;28;20506;-76
2021/01/20 09:43:23;;;;;;;2.87;2.50;;;7.60;93.20;;;;;;5030428;28;20474;-76
2021/01/20 09:45:51;;;;;;;5.83;2.60;;;7.20;95.10;;;;;;5047624;28;20574;-75
2021/01/20 09:48:21;;;;;;;3.63;2.87;;;7.10;96.00;;;;;;5049297;28;20442;-76
2021/01/20 09:50:50;;;;;;;5.53;2.60;;;7.20;96.70;;;;;;5048044;28;20461;-76
2021/01/20 09:53:20;;;;;;;2.60;2.40;;;7.10;97.10;;;;;;5046106;28;20466;-76
2021/01/20 09:55:48;;;;;;;2.60;2.40;;;7.20;96.90;;;;;;5028989;28;20502;-76
2021/01/20 09:58:45;;;;;;;4.43;2.27;;;7.50;97.30;;;;;;5030609;28;20834;-78
2021/01/20 10:01:37;;;;;;;3.50;1.87;;;8.00;95.30;;;;;;5031243;28;20566;-77
2021/01/20 10:04:06;;;;;;;6.90;2.50;;;8.00;95.00;;;;;;5048324;28;20450;-77
2021/01/20 10:06:38;;;;;;;2.80;2.27;;;8.00;94.80;;;;;;5013469;28;20499;-77
2021/01/20 10:09:06;;;;;;;2.77;2.57;;;7.80;95.50;;;;;;5030233;28;20479;-76
2021/01/20 10:11:33;;;;;;;3.53;2.50;;;8.10;95.50;;;;;;5013382;28;20477;-77
2021/01/20 10:14:04;;;;;;;2.37;2.17;;;7.80;95.40;;;;;;5048464;28;20462;-76
2021/01/20 10:16:31;;;;;;;4.00;2.10;;;8.10;95.60;;;;;;5028187;28;20504;-77
2021/01/20 10:18:59;;;;;;;3.70;2.00;;;8.10;95.60;;;;;;5029913;28;20466;-76
2021/01/20 10:21:29;;;;;;;3.10;2.20;;;8.30;94.60;;;;;;5046883;28;20497;-77
2021/01/20 10:23:57;;;;;;;3.13;2.80;;;8.70;94.50;;;;;;5028413;28;20451;-77
2021/01/20 10:26:25;;;;;;;2.43;2.03;;;9.10;93.80;;;;;;5029404;28;20494;-78
2021/01/20 10:28:53;;;;;;;2.00;1.77;;;9.80;92.50;;;;;;5028841;28;20470;-78
2021/01/20 10:31:21;;;;;;;2.93;2.10;;;9.60;92.50;;;;;;5028567;28;20557;-78
2021/01/20 10:33:49;;;;;;;2.40;2.00;;;9.70;91.80;;;;;;5030593;28;20552;-78
2021/01/20 10:36:16;;;;;;;2.00;1.80;;;9.80;92.10;;;;;;5016565;28;20520;-78
2021/01/20 10:38:45;;;;;;;1.73;1.60;;;9.80;91.70;;;;;;5032366;28;22359;-77
2021/01/20 10:41:12;;;;;;;9.73;2.70;;;10.40;90.20;;;;;;5059031;28;21827;-78
2021/01/20 10:43:44;;;;;;;2.60;2.10;;;10.70;88.90;;;;;;5062147;28;20900;-78
2021/01/20 10:46:13;;;;;;;3.87;2.07;;;9.90;90.70;;;;;;5008142;28;20500;-78
2021/01/20 10:48:41;;;;;;;2.77;2.40;;;9.60;91.30;;;;;;5023317;28;20474;-78
2021/01/20 10:51:10;;;;;;;2.03;1.53;;;9.60;91.70;;;;;;5022519;28;20496;-78
2021/01/20 10:53:39;;;;;;;2.40;2.20;;;9.60;91.70;;;;;;5020933;28;20577;-78
2021/01/20 10:56:08;;;;;;;4.27;3.87;;;9.40;92.00;;;;;;5067678;28;20477;-78
2021/01/20 10:58:36;;;;;;;2.30;2.10;;;9.90;91.50;;;;;;5066909;28;20450;-77
2021/01/20 11:01:05;;;;;;;1.73;1.63;;;10.80;90.10;;;;;;5048482;28;20478;-78
2021/01/20 11:03:33;;;;;;;2.50;1.37;;;11.70;85.60;;;;;;5048794;28;20549;-77
2021/01/20 11:06:01;;;;;;;2.93;1.73;;;11.80;85.90;;;;;;5031334;28;20492;-79
2021/01/20 11:08:29;;;;;;;2.60;1.93;;;11.70;85.00;;;;;;5048696;28;20903;-77
2021/01/20 11:10:57;;;;;;;2.00;1.33;;;11.70;83.80;;;;;;5033028;28;20511;-77
2021/01/20 11:13:25;;;;;;;2.53;1.67;;;11.20;84.60;;;;;;5048950;28;20470;-77
2021/01/20 11:15:53;;;;;;;1.90;1.70;;;11.60;85.00;;;;;;5047203;28;20494;-77
2021/01/20 11:18:21;;;;;;;3.73;1.90;;;11.40;84.10;;;;;;5031911;28;20486;-77
2021/01/20 11:20:49;;;;;;;3.20;2.50;;;11.00;84.80;;;;;;5071599;28;20490;-77
2021/01/20 11:23:19;;;;;;;2.47;1.70;;;11.00;85.40;;;;;;5042205;28;20506;-78
2021/01/20 11:25:50;;;;;;;3.07;1.30;;;11.20;85.60;;;;;;5050478;28;20524;-79
2021/01/20 11:28:43;;;;;;;3.87;1.87;;;11.80;83.80;;;;;;5032419;28;20576;-78
2021/01/20 11:31:12;;;;;;;3.50;2.17;;;12.50;82.60;;;;;;5031396;28;20567;-78
2021/01/20 11:33:41;;;;;;;2.00;1.77;;;12.90;82.10;;;;;;5015801;28;21007;-78
2021/01/20 11:36:33;;;;;;;5.50;2.43;;;12.10;79.50;;;;;;5069434;28;20451;-78
2021/01/20 11:39:01;;;;;;;4.57;1.77;;;10.40;85.00;;;;;;5052222;28;20488;-78
2021/01/20 11:41:29;;;;;;;2.43;1.77;;;10.90;86.90;;;;;;5019225;28;20464;-78
2021/01/20 11:43:57;;;;;;;1.90;1.80;;;11.50;84.50;;;;;;5035478;28;20513;-77
2021/01/20 11:46:26;;;;;;;1.97;1.73;;;12.20;82.40;;;;;;5038311;28;20964;-78
2021/01/20 11:48:54;;;;;;;7.50;2.10;;;11.50;81.40;;;;;;5064048;28;20472;-78
2021/01/20 11:51:23;;;;;;;3.87;3.57;;;10.90;84.70;;;;;;5039269;28;20486;-79
2021/01/20 11:53:50;;;;;;;7.27;5.00;;;10.60;85.60;;;;;;5038340;28;20473;-78
2021/01/20 11:56:18;;;;;;;2.00;1.83;;;10.30;88.40;;;;;;5073521;28;20552;-77
2021/01/20 11:59:12;;;;;;;2.43;1.97;;;10.10;88.50;;;;;;5054857;28;20571;-78
2021/01/20 12:01:46;;;;;;;3.03;1.67;;;10.50;87.30;;;;;;5066956;28;20472;-79
2021/01/20 12:04:15;;;;;;;2.30;1.90;;;10.60;86.20;;;;;;5070563;28;20468;-78
2021/01/20 12:06:43;;;;;;;1.80;1.70;;;10.90;84.60;;;;;;5070438;28;20500;-79
2021/01/20 12:09:12;;;;;;;2.63;2.07;;;10.50;85.30;;;;;;5020807;28;20884;-78
2021/01/20 12:11:40;;;;;;;5.33;2.30;;;10.40;86.30;;;;;;5050712;28;20595;-79
2021/01/20 12:14:09;;;;;;;7.40;3.17;;;10.50;86.70;;;;;;5051402;28;20472;-80
2021/01/20 12:16:40;;;;;;;4.23;2.60;;;10.40;86.90;;;;;;5061603;28;20825;-79
2021/01/20 12:19:09;;;;;;;3.47;2.77;;;9.90;89.10;;;;;;5053833;28;20477;-79
2021/01/20 12:21:44;;;;;;;6.03;3.23;;;10.20;88.00;;;;;;5038632;28;20624;-78
2021/01/20 12:24:13;;;;;;;4.67;3.63;;;10.20;86.90;;;;;;5052538;28;20462;-77
2021/01/20 12:26:41;;;;;;;2.70;1.63;;;10.10;86.90;;;;;;5069258;28;20624;-78
2021/01/20 12:29:09;;;;;;;3.27;2.17;;;9.70;88.20;;;;;;5051276;28;21015;-79
2021/01/20 12:31:38;;;;;;;2.93;2.63;;;9.90;89.80;;;;;;5052122;28;20558;-78
2021/01/20 12:34:06;;;;;;;2.80;2.37;;;10.40;88.90;;;;;;5037344;28;20528;-76
2021/01/20 12:36:34;;;;;;;1.90;1.53;;;10.90;85.80;;;;;;5056718;28;20463;-78
2021/01/20 12:39:02;;;;;;;3.90;2.10;;;10.60;86.20;;;;;;5081808;28;20491;-80
2021/01/20 12:41:31;;;;;;;2.90;1.40;;;10.90;85.50;;;;;;5056863;28;20466;-78
2021/01/20 12:43:59;;;;;;;4.63;2.70;;;10.50;85.20;;;;;;5056878;28;20481;-77
2021/01/20 12:46:27;;;;;;;2.63;1.80;;;10.10;86.50;;;;;;5057552;28;20487;-79
2021/01/20 12:49:05;;;;;;;2.50;1.40;;;10.30;87.30;;;;;;5041820;28;20609;-79
2021/01/20 12:51:33;;;;;;;4.30;1.50;;;10.00;84.50;;;;;;5044105;28;20484;-78
2021/01/20 12:54:03;;;;;;;4.83;2.40;;;9.90;87.30;;;;;;5060421;28;20541;-79
2021/01/20 12:56:33;;;;;;;1.70;1.60;;;9.70;87.00;;;;;;5044712;28;20462;-80
2021/01/20 12:59:03;;;;;;;3.00;2.20;;;9.30;88.20;;;;;;5040699;28;20465;-80
2021/01/20 13:01:36;;;;;;;1.60;1.33;;;9.00;89.60;;;;;;5049370;28;20486;-79
2021/01/20 13:04:05;;;;;;;6.17;2.00;;;9.20;90.00;;;;;;5052969;28;20470;-79
2021/01/20 13:06:34;;;;;;;1.90;1.67;;;9.20;90.50;;;;;;5053435;28;20497;-80
2021/01/20 13:09:03;;;;;;;5.50;2.37;;;9.10;90.20;;;;;;5068705;28;20470;-79
2021/01/20 13:11:33;;;;;;;5.77;1.70;;;9.10;90.70;;;;;;5056348;28;20470;-79
2021/01/20 13:14:01;;;;;;;3.73;2.10;;;9.00;91.90;;;;;;5022906;28;20482;-78
2021/01/20 13:16:55;;;;;;;2.83;1.57;;;8.90;92.00;;;;;;5029211;28;20480;-79
2021/01/20 13:19:26;;;;;;;6.83;1.70;;;8.80;92.90;;;;;;5039616;28;20519;-79
2021/01/20 13:21:54;;;;;;;1.43;1.20;;;8.70;92.40;;;;;;5054596;28;20542;-78
2021/01/20 13:24:23;;;;;;;4.20;1.43;;;8.70;91.50;;;;;;5054317;28;21555;-78